Time;durP1;ratioP1;P1;durP2;ratioP2;P2;SDS_P1;SDS_P2;PMS_P1;PMS_P2;Temp;Humidity;BMP_temperature;BMP_pressure;BME280_temperature;BME280_humidity;BME280_pressure;Samples;Min_cycle;Max_cycle;Signal;HPM_P1;HPM_P2
2023/03/06 05:32:15;;;;;;;19.40;9.60;;;6.90;65.20;;;;;;6123137;23;19928;-77
2023/03/06 05:34:41;;;;;;;21.17;10.07;;;6.90;65.10;;;;;;6128831;23;20009;-78
2023/03/06 05:37:07;;;;;;;20.33;8.88;;;6.90;65.10;;;;;;6129171;23;20010;-81
2023/03/06 05:39:33;;;;;;;18.42;8.45;;;6.90;65.20;;;;;;6103174;23;20030;-82
2023/03/06 05:41:59;;;;;;;19.77;9.57;;;7.00;65.10;;;;;;6128933;23;19998;-79
2023/03/06 05:44:31;;;;;;;21.88;8.80;;;7.00;64.90;;;;;;6130968;23;20129;-88
2023/03/06 05:46:56;;;;;;;20.02;9.48;;;6.90;65.00;;;;;;6103677;23;20037;-83
2023/03/06 05:49:22;;;;;;;20.15;9.80;;;6.90;64.90;;;;;;6127553;23;20010;-80
2023/03/06 05:51:47;;;;;;;16.85;8.82;;;6.90;65.10;;;;;;6102482;23;20374;-76
2023/03/06 05:54:13;;;;;;;15.90;7.97;;;7.00;65.10;;;;;;6103015;23;20010;-89
2023/03/06 05:56:39;;;;;;;21.17;10.07;;;6.90;65.00;;;;;;6130052;23;19998;-78
2023/03/06 05:59:04;;;;;;;18.42;8.65;;;6.90;64.60;;;;;;6128946;23;20002;-78
2023/03/06 06:01:30;;;;;;;12.52;8.07;;;6.90;64.50;;;;;;6127096;23;20077;-78
2023/03/06 06:03:55;;;;;;;13.52;7.93;;;6.90;64.20;;;;;;6127468;23;20002;-77
2023/03/06 06:06:21;;;;;;;19.33;8.35;;;6.90;64.30;;;;;;6129094;23;20010;-78
2023/03/06 06:08:47;;;;;;;13.20;7.28;;;6.90;64.40;;;;;;6102771;23;20014;-78
2023/03/06 06:11:13;;;;;;;20.02;8.52;;;6.90;64.20;;;;;;6129176;23;20021;-78
2023/03/06 06:13:39;;;;;;;14.23;9.20;;;6.90;64.00;;;;;;6128503;23;20006;-78
2023/03/06 06:16:15;;;;;;;20.33;8.75;;;6.90;64.30;;;;;;6128572;23;19998;-78
2023/03/06 06:18:40;;;;;;;17.23;6.93;;;6.80;64.80;;;;;;6128530;23;20002;-76
2023/03/06 06:21:09;;;;;;;17.33;8.63;;;6.80;65.00;;;;;;6128786;23;20013;-77
2023/03/06 06:23:52;;;;;;;18.42;8.57;;;6.80;64.60;;;;;;6128831;23;20077;-78
2023/03/06 06:26:17;;;;;;;17.70;8.00;;;6.80;64.50;;;;;;6101624;23;20430;-77
2023/03/06 06:28:43;;;;;;;17.10;8.23;;;6.90;64.40;;;;;;6128489;23;20096;-76
2023/03/06 06:31:11;;;;;;;16.00;8.18;;;6.90;64.40;;;;;;6122751;23;20065;-75
2023/03/06 06:33:37;;;;;;;15.75;8.13;;;6.80;64.30;;;;;;6102181;23;20517;-75
2023/03/06 06:36:03;;;;;;;18.40;7.35;;;6.80;64.30;;;;;;6127226;23;20355;-77
2023/03/06 06:38:29;;;;;;;19.13;8.98;;;6.70;64.40;;;;;;6126852;23;20012;-77
2023/03/06 06:40:54;;;;;;;16.13;7.53;;;6.80;64.30;;;;;;6127771;23;20010;-77
2023/03/06 06:43:20;;;;;;;12.88;7.20;;;6.80;64.50;;;;;;6128130;23;20006;-77
2023/03/06 06:45:47;;;;;;;19.15;8.02;;;6.80;64.60;;;;;;6128508;23;20399;-74
2023/03/06 06:48:12;;;;;;;14.27;8.63;;;6.80;64.50;;;;;;6127214;23;20006;-77
2023/03/06 06:50:38;;;;;;;20.55;8.30;;;6.80;64.70;;;;;;6128334;23;20013;-74
2023/03/06 06:53:03;;;;;;;20.52;8.73;;;6.70;64.50;;;;;;6127201;23;20006;-73
2023/03/06 06:55:29;;;;;;;17.67;7.85;;;6.80;64.40;;;;;;6128288;23;20013;-74
2023/03/06 06:58:04;;;;;;;12.45;7.43;;;6.70;64.50;;;;;;6128372;23;20006;-73
2023/03/06 07:00:30;;;;;;;22.77;9.15;;;6.70;64.80;;;;;;6128529;23;20093;-76
2023/03/06 07:02:56;;;;;;;17.48;7.18;;;6.80;64.30;;;;;;6128467;23;20017;-73
2023/03/06 07:05:21;;;;;;;12.80;7.32;;;6.80;64.60;;;;;;6128326;23;20020;-73
2023/03/06 07:07:49;;;;;;;16.98;7.72;;;6.80;64.50;;;;;;6128784;23;20006;-75
2023/03/06 07:10:15;;;;;;;12.60;6.85;;;6.80;64.30;;;;;;6128079;23;20460;-75
2023/03/06 07:12:41;;;;;;;18.63;8.30;;;6.80;64.40;;;;;;6128639;23;20009;-75
2023/03/06 07:15:07;;;;;;;16.90;8.75;;;6.80;64.00;;;;;;6128651;23;20014;-75
2023/03/06 07:17:33;;;;;;;8.30;6.13;;;6.90;63.90;;;;;;6128161;23;20002;-75
2023/03/06 07:19:59;;;;;;;14.40;7.25;;;6.90;64.40;;;;;;6128599;23;20073;-76
2023/03/06 07:22:24;;;;;;;18.85;7.20;;;6.70;64.20;;;;;;6128579;23;20002;-75
2023/03/06 07:24:50;;;;;;;22.92;9.23;;;6.80;64.20;;;;;;6128335;23;20025;-75
2023/03/06 07:27:16;;;;;;;21.80;7.60;;;6.80;63.90;;;;;;6128742;23;20001;-75
2023/03/06 07:29:42;;;;;;;15.32;8.18;;;6.70;63.80;;;;;;6128655;23;20073;-75
2023/03/06 07:32:08;;;;;;;14.20;9.20;;;6.80;63.60;;;;;;6127630;23;20449;-75
2023/03/06 07:34:34;;;;;;;15.27;6.00;;;6.80;63.80;;;;;;6128544;23;20006;-75
2023/03/06 07:36:59;;;;;;;16.85;7.63;;;6.80;63.90;;;;;;6128385;23;20590;-75
2023/03/06 07:39:26;;;;;;;12.02;6.65;;;6.90;63.90;;;;;;6128738;23;20069;-75
2023/03/06 07:41:52;;;;;;;14.05;7.43;;;6.90;63.70;;;;;;6128676;23;20006;-75
2023/03/06 07:44:18;;;;;;;18.05;7.65;;;6.90;63.00;;;;;;6128569;23;20006;-75
2023/03/06 07:46:44;;;;;;;22.70;10.50;;;6.80;62.60;;;;;;6127480;23;20010;-75
2023/03/06 07:49:09;;;;;;;16.08;7.75;;;6.90;63.20;;;;;;6128238;23;20032;-75
2023/03/06 07:51:35;;;;;;;15.82;7.70;;;6.90;63.00;;;;;;6128505;23;20008;-75
2023/03/06 07:54:00;;;;;;;16.48;8.00;;;7.00;63.10;;;;;;6128415;23;20010;-75
2023/03/06 07:56:26;;;;;;;11.35;7.13;;;7.00;63.00;;;;;;6128137;23;20013;-75
2023/03/06 07:58:52;;;;;;;16.25;7.25;;;7.00;63.10;;;;;;6128487;23;19994;-75
2023/03/06 08:01:19;;;;;;;12.85;7.07;;;7.10;63.10;;;;;;6128474;23;20382;-76
2023/03/06 08:03:46;;;;;;;17.50;8.82;;;7.10;63.10;;;;;;6101898;23;20085;-75
2023/03/06 08:06:20;;;;;;;17.40;8.07;;;7.10;63.10;;;;;;6128640;23;20006;-76
2023/03/06 08:08:47;;;;;;;12.15;7.43;;;7.10;63.10;;;;;;6128613;23;20444;-75
2023/03/06 08:11:16;;;;;;;15.55;7.68;;;7.10;63.20;;;;;;6128664;23;20435;-75
2023/03/06 08:13:42;;;;;;;13.82;6.75;;;7.20;63.00;;;;;;6129995;23;20013;-75
2023/03/06 08:16:08;;;;;;;13.23;7.30;;;7.20;62.90;;;;;;6130223;23;20009;-75
2023/03/06 08:18:34;;;;;;;17.80;8.00;;;7.20;62.90;;;;;;6129688;23;20434;-75
2023/03/06 08:21:01;;;;;;;19.08;7.50;;;7.20;62.80;;;;;;6130355;23;20002;-75
2023/03/06 08:23:27;;;;;;;15.23;7.72;;;7.20;62.50;;;;;;6130277;23;20301;-76
2023/03/06 08:25:57;;;;;;;19.65;9.07;;;7.20;62.60;;;;;;6130289;23;20061;-76
2023/03/06 08:28:23;;;;;;;;;;;7.20;62.60;;;;;;6130347;23;20009;-75
2023/03/06 08:30:48;;;;;;;15.20;7.88;;;7.20;62.50;;;;;;6129869;23;19923;-76
2023/03/06 08:33:14;;;;;;;16.17;7.95;;;7.20;62.60;;;;;;6129550;23;20010;-75
2023/03/06 08:35:39;;;;;;;16.42;7.75;;;7.20;62.50;;;;;;6130237;23;20429;-75
2023/03/06 08:38:05;;;;;;;13.98;8.40;;;7.20;62.80;;;;;;6130095;23;20005;-76
2023/03/06 08:40:31;;;;;;;20.67;7.18;;;7.20;63.00;;;;;;6129674;23;20021;-75
2023/03/06 08:42:56;;;;;;;14.38;8.27;;;7.30;63.30;;;;;;6130143;23;20073;-75
2023/03/06 08:45:22;;;;;;;13.85;8.18;;;7.30;63.60;;;;;;6129378;23;20449;-76
2023/03/06 08:47:47;;;;;;;13.27;8.30;;;7.20;64.70;;;;;;6129901;23;20094;-75
2023/03/06 08:50:13;;;;;;;15.40;7.13;;;7.20;65.50;;;;;;6129983;23;20033;-76
2023/03/06 08:52:39;;;;;;;22.17;9.35;;;7.20;65.90;;;;;;6129728;23;20010;-76
2023/03/06 08:55:05;;;;;;;13.48;7.93;;;7.20;66.10;;;;;;6129498;23;20002;-76
2023/03/06 08:57:31;;;;;;;16.73;8.95;;;7.30;66.60;;;;;;6129744;23;20044;-75
2023/03/06 08:59:56;;;;;;;15.98;8.77;;;7.30;67.10;;;;;;6129589;23;20002;-76
2023/03/06 09:02:22;;;;;;;14.02;8.25;;;7.30;67.80;;;;;;6129553;23;20006;-76
2023/03/06 09:04:48;;;;;;;18.98;8.65;;;7.40;67.90;;;;;;6129829;23;20061;-75
2023/03/06 09:07:13;;;;;;;18.38;9.40;;;7.30;68.00;;;;;;6129589;23;20416;-75
2023/03/06 09:09:39;;;;;;;20.83;9.63;;;7.30;68.70;;;;;;6129913;23;20516;-75
2023/03/06 09:12:04;;;;;;;15.23;8.93;;;7.30;69.40;;;;;;6129735;23;19998;-75
2023/03/06 09:14:30;;;;;;;18.90;9.35;;;7.30;69.00;;;;;;6129336;23;20010;-75
2023/03/06 09:16:56;;;;;;;23.10;10.02;;;7.30;69.20;;;;;;6129744;23;20041;-75
2023/03/06 09:19:22;;;;;;;17.23;8.40;;;7.30;70.10;;;;;;6129599;23;20002;-76
2023/03/06 09:21:48;;;;;;;13.55;7.05;;;7.30;70.00;;;;;;6129640;23;20036;-76
2023/03/06 09:24:13;;;;;;;12.30;7.68;;;7.40;69.80;;;;;;6129433;23;20002;-76
2023/03/06 09:26:39;;;;;;;18.73;8.55;;;7.40;69.80;;;;;;6129233;23;20012;-76
2023/03/06 09:29:05;;;;;;;17.95;8.25;;;7.30;70.00;;;;;;6129789;23;20021;-76
2023/03/06 09:31:31;;;;;;;17.85;9.15;;;7.40;70.10;;;;;;6129369;23;20358;-76
2023/03/06 09:33:57;;;;;;;20.13;9.05;;;7.50;70.30;;;;;;6129297;23;20010;-76
2023/03/06 09:36:23;;;;;;;16.58;8.93;;;7.50;70.40;;;;;;6129232;23;20006;-75
2023/03/06 09:38:49;;;;;;;16.75;8.52;;;7.50;69.80;;;;;;6129662;23;19998;-76
2023/03/06 09:41:31;;;;;;;19.10;9.75;;;7.60;70.10;;;;;;6129553;23;20073;-76
2023/03/06 09:44:07;;;;;;;15.23;8.40;;;7.70;69.70;;;;;;6128873;23;20060;-75
2023/03/06 09:46:48;;;;;;;20.77;9.75;;;7.70;69.40;;;;;;6129328;23;20002;-75
2023/03/06 09:49:35;;;;;;;19.52;9.15;;;7.70;69.30;;;;;;6129083;23;20028;-75
2023/03/06 09:52:39;;;;;;;16.83;8.38;;;7.70;69.40;;;;;;6129541;23;20346;-75
2023/03/06 09:55:20;;;;;;;17.88;8.70;;;7.70;69.20;;;;;;6055376;23;20017;-75
2023/03/06 09:58:03;;;;;;;15.38;8.05;;;7.70;69.60;;;;;;6129249;23;20476;-75
2023/03/06 10:01:00;;;;;;;15.40;8.77;;;7.80;69.50;;;;;;6129129;23;20024;-75
2023/03/06 10:03:47;;;;;;;18.92;9.30;;;7.90;69.20;;;;;;6069894;23;20006;-76
2023/03/06 10:06:31;;;;;;;19.38;9.07;;;7.90;68.50;;;;;;6129397;23;20084;-75
2023/03/06 10:09:00;;;;;;;19.55;8.55;;;8.00;68.50;;;;;;6129313;23;20006;-75
2023/03/06 10:11:51;;;;;;;18.70;9.50;;;8.10;68.30;;;;;;6128844;23;20021;-76
2023/03/06 10:14:36;;;;;;;16.98;9.18;;;8.00;67.80;;;;;;6129191;23;20042;-75
2023/03/06 10:17:03;;;;;;;20.92;10.13;;;7.90;67.70;;;;;;6129000;23;19998;-75
2023/03/06 10:19:34;;;;;;;26.25;10.88;;;8.00;68.10;;;;;;6129051;23;19998;-76
2023/03/06 10:22:05;;;;;;;27.95;12.60;;;7.90;67.50;;;;;;6128747;23;20496;-76
2023/03/06 10:24:53;;;;;;;23.35;11.50;;;8.10;67.60;;;;;;6128907;23;20057;-76
2023/03/06 10:27:43;;;;;;;30.70;12.55;;;8.20;67.40;;;;;;6129050;23;20017;-75
2023/03/06 10:30:33;;;;;;;32.65;11.98;;;8.20;67.40;;;;;;6128473;23;20496;-77
2023/03/06 10:33:06;;;;;;;16.92;10.07;;;8.20;67.50;;;;;;6128716;23;20434;-75
2023/03/06 10:35:47;;;;;;;33.08;13.10;;;8.30;67.00;;;;;;6128851;23;20080;-75
2023/03/06 10:38:36;;;;;;;26.30;12.90;;;8.30;66.70;;;;;;6129167;23;20002;-75
2023/03/06 10:41:10;;;;;;;23.63;10.60;;;8.30;66.60;;;;;;6128632;23;20002;-76
2023/03/06 10:43:41;;;;;;;24.05;13.38;;;8.50;66.90;;;;;;6127874;23;19997;-75
2023/03/06 10:46:10;;;;;;;31.48;13.90;;;8.60;66.20;;;;;;6128461;23;20041;-76
2023/03/06 10:48:38;;;;;;;22.83;10.80;;;8.60;65.80;;;;;;6128290;23;20017;-76
2023/03/06 10:51:19;;;;;;;21.50;10.63;;;8.80;64.40;;;;;;6128876;23;20010;-76
2023/03/06 10:54:11;;;;;;;22.63;9.88;;;8.90;64.90;;;;;;6128926;23;20013;-75
2023/03/06 10:56:42;;;;;;;21.70;8.60;;;8.90;65.10;;;;;;6121949;23;20036;-75
2023/03/06 10:59:11;;;;;;;16.52;8.80;;;8.90;64.50;;;;;;6128348;23;20026;-75
2023/03/06 11:01:45;;;;;;;20.05;9.70;;;8.90;64.40;;;;;;6128610;23;20002;-76
2023/03/06 11:04:22;;;;;;;18.20;8.10;;;8.80;64.10;;;;;;6128702;23;20002;-75
2023/03/06 11:07:03;;;;;;;16.30;8.88;;;8.70;63.90;;;;;;6128305;23;20009;-76
2023/03/06 11:09:29;;;;;;;19.95;8.70;;;8.80;63.40;;;;;;6128860;23;20001;-76
2023/03/06 11:12:14;;;;;;;20.02;8.48;;;9.00;63.60;;;;;;6128673;23;20012;-75
2023/03/06 11:14:40;;;;;;;17.08;8.00;;;9.20;62.90;;;;;;6128774;23;20021;-76
2023/03/06 11:17:27;;;;;;;14.98;7.65;;;9.30;62.30;;;;;;6128155;23;20041;-74
2023/03/06 11:20:15;;;;;;;18.10;7.90;;;9.60;62.20;;;;;;6128579;23;20006;-75
2023/03/06 11:22:45;;;;;;;16.67;7.97;;;9.80;61.80;;;;;;6128266;23;20009;-75
2023/03/06 11:25:14;;;;;;;14.32;5.45;;;9.90;61.20;;;;;;6128760;23;20006;-75
2023/03/06 11:27:42;;;;;;;15.00;7.20;;;10.10;61.30;;;;;;6128711;23;20002;-76
2023/03/06 11:30:20;;;;;;;14.90;7.47;;;10.30;60.40;;;;;;6128181;23;20017;-74
2023/03/06 11:33:00;;;;;;;18.23;8.60;;;10.30;59.70;;;;;;6128342;23;20009;-75
2023/03/06 11:35:34;;;;;;;15.85;7.38;;;10.40;59.20;;;;;;6128743;23;20026;-76
2023/03/06 11:38:06;;;;;;;15.23;7.85;;;10.40;59.60;;;;;;6128307;23;19998;-75
2023/03/06 11:40:52;;;;;;;19.38;8.93;;;10.30;60.20;;;;;;6128582;23;20056;-76
2023/03/06 11:43:17;;;;;;;14.43;7.88;;;10.30;60.20;;;;;;6128691;23;20049;-76
2023/03/06 11:45:47;;;;;;;15.82;8.30;;;10.30;60.50;;;;;;6102151;23;20010;-76
2023/03/06 11:48:13;;;;;;;15.63;8.60;;;10.40;59.60;;;;;;6130241;23;20010;-76
2023/03/06 11:50:43;;;;;;;15.73;7.18;;;10.50;59.50;;;;;;6130350;23;20016;-75
2023/03/06 11:53:30;;;;;;;16.42;7.82;;;10.70;59.40;;;;;;6130398;23;20061;-75
2023/03/06 11:56:17;;;;;;;19.35;7.45;;;10.70;57.50;;;;;;6130257;23;20073;-75
2023/03/06 11:58:58;;;;;;;15.23;7.22;;;10.80;58.50;;;;;;6104841;23;20013;-75
2023/03/06 12:01:29;;;;;;;17.90;7.55;;;10.90;58.50;;;;;;6130272;23;20002;-74
2023/03/06 12:04:20;;;;;;;18.42;7.47;;;11.10;58.80;;;;;;6129945;23;20073;-75
2023/03/06 12:06:59;;;;;;;13.63;7.18;;;11.00;57.60;;;;;;6104146;23;20014;-75
2023/03/06 12:09:56;;;;;;;16.33;7.47;;;11.10;57.10;;;;;;6130510;23;20422;-75
2023/03/06 12:13:09;;;;;;;14.30;7.35;;;11.10;56.00;;;;;;6119363;23;20014;-75
2023/03/06 12:15:50;;;;;;;13.82;7.05;;;11.20;57.70;;;;;;6065412;23;20002;-75
2023/03/06 12:18:25;;;;;;;14.93;6.93;;;11.30;56.80;;;;;;6130168;23;20386;-75
2023/03/06 12:20:59;;;;;;;13.10;6.72;;;11.50;56.20;;;;;;6130069;23;20338;-74
2023/03/06 12:23:37;;;;;;;15.68;7.13;;;11.50;56.60;;;;;;6130152;23;20082;-74
2023/03/06 12:26:38;;;;;;;16.10;6.75;;;11.60;55.40;;;;;;6129958;23;20006;-75
2023/03/06 12:29:09;;;;;;;;;;;11.70;56.00;;;;;;6130842;23;20509;-74
2023/03/06 12:31:45;;;;;;;13.27;6.50;;;11.80;55.60;;;;;;6130029;23;19960;-72
2023/03/06 12:34:33;;;;;;;10.73;5.97;;;11.80;55.30;;;;;;6129687;23;20002;-79
2023/03/06 12:37:11;;;;;;;13.90;7.30;;;11.70;55.20;;;;;;6110500;23;20010;-79
2023/03/06 12:40:00;;;;;;;12.13;6.05;;;11.80;55.00;;;;;;6129444;23;20008;-79
2023/03/06 12:42:37;;;;;;;11.10;6.20;;;11.80;55.30;;;;;;6129973;23;20049;-79
2023/03/06 12:45:31;;;;;;;13.55;6.72;;;11.80;54.60;;;;;;6128521;23;20005;-79
2023/03/06 12:47:57;;;;;;;11.38;5.80;;;11.80;53.20;;;;;;6129223;23;20006;-79
2023/03/06 12:50:26;;;;;;;10.68;6.43;;;11.70;53.30;;;;;;6129764;23;20009;-79
2023/03/06 12:52:59;;;;;;;12.65;5.95;;;11.70;54.00;;;;;;6103537;23;20460;-79
2023/03/06 12:55:25;;;;;;;11.63;6.47;;;11.70;54.00;;;;;;6129423;23;20026;-79
2023/03/06 12:57:51;;;;;;;14.45;7.40;;;11.70;53.60;;;;;;6128309;23;19998;-78
2023/03/06 13:01:13;;;;;;;11.48;5.28;;;11.80;54.00;;;;;;6102886;23;20015;-81
2023/03/06 13:03:59;;;;;;;13.27;6.03;;;11.80;53.70;;;;;;6129244;23;20006;-79
2023/03/06 13:07:09;;;;;;;12.43;5.00;;;11.90;52.50;;;;;;6129697;23;20013;-79
2023/03/06 13:10:01;;;;;;;10.32;5.90;;;11.90;52.50;;;;;;5983776;23;20008;-79
2023/03/06 13:12:46;;;;;;;12.82;5.38;;;11.80;52.40;;;;;;5983154;23;20067;-78
2023/03/06 13:15:36;;;;;;;8.93;5.78;;;11.80;52.40;;;;;;6082238;23;20334;-78
2023/03/06 13:18:20;;;;;;;13.10;5.78;;;11.90;52.50;;;;;;6129206;23;20009;-79
2023/03/06 13:20:47;;;;;;;10.18;5.18;;;11.90;51.80;;;;;;6103647;23;20010;-79
2023/03/06 13:23:28;;;;;;;11.50;5.75;;;11.80;50.50;;;;;;6129612;23;20327;-79
2023/03/06 13:26:02;;;;;;;10.07;5.55;;;11.90;52.80;;;;;;6129602;23;20013;-79
2023/03/06 13:28:47;;;;;;;7.18;3.63;;;11.90;51.70;;;;;;6103415;23;20010;-79
2023/03/06 13:31:25;;;;;;;8.77;4.95;;;11.90;52.80;;;;;;6129334;23;20441;-79
2023/03/06 13:34:04;;;;;;;10.70;5.72;;;11.90;52.10;;;;;;6129228;23;20002;-79
2023/03/06 13:36:34;;;;;;;9.10;5.47;;;11.90;52.00;;;;;;6129202;23;20333;-79
2023/03/06 13:39:04;;;;;;;9.85;5.32;;;11.70;51.00;;;;;;6103590;23;20001;-78
2023/03/06 13:41:30;;;;;;;8.70;5.05;;;11.70;51.40;;;;;;6129030;23;20072;-78
2023/03/06 13:43:58;;;;;;;13.23;5.50;;;11.70;52.00;;;;;;6129189;23;20006;-79
2023/03/06 13:46:30;;;;;;;12.48;5.80;;;11.70;51.90;;;;;;6129338;23;20002;-79
2023/03/06 13:49:25;;;;;;;9.65;5.38;;;11.70;51.80;;;;;;6128784;23;20005;-79
2023/03/06 13:51:51;;;;;;;7.82;4.85;;;11.70;51.40;;;;;;6098904;23;20445;-79
2023/03/06 13:54:40;;;;;;;9.27;5.18;;;11.60;50.90;;;;;;6129169;23;20033;-78
2023/03/06 13:57:17;;;;;;;12.45;5.53;;;11.50;51.50;;;;;;6129093;23;20005;-79
2023/03/06 14:00:04;;;;;;;8.55;5.45;;;11.50;52.40;;;;;;6129208;23;20002;-79
2023/03/06 14:02:54;;;;;;;10.38;5.28;;;11.60;52.60;;;;;;6128670;23;19998;-78
2023/03/06 14:05:20;;;;;;;;;;;11.70;52.20;;;;;;6129525;23;20009;-79
2023/03/06 14:08:12;;;;;;;9.63;5.78;;;11.70;51.70;;;;;;6129204;23;19940;-79
2023/03/06 14:10:39;;;;;;;9.77;4.60;;;11.60;51.40;;;;;;6128776;23;20002;-79
2023/03/06 14:13:19;;;;;;;9.57;5.32;;;11.60;51.20;;;;;;6102555;23;20497;-79
2023/03/06 14:15:51;;;;;;;10.95;5.22;;;11.50;50.60;;;;;;6129103;23;20334;-79
2023/03/06 14:18:32;;;;;;;11.02;5.70;;;11.50;51.30;;;;;;6128606;23;20081;-78
2023/03/06 14:21:04;;;;;;;13.48;5.00;;;11.50;51.10;;;;;;6129142;23;20005;-79
2023/03/06 14:23:36;;;;;;;8.68;4.65;;;11.30;51.10;;;;;;6128620;23;20006;-79
2023/03/06 14:26:21;;;;;;;14.13;4.93;;;11.40;51.40;;;;;;6129098;23;20012;-78
2023/03/06 14:28:55;;;;;;;8.57;4.32;;;11.50;51.50;;;;;;6128823;23;20002;-79
2023/03/06 14:31:29;;;;;;;7.97;4.25;;;11.40;50.60;;;;;;6128971;23;20014;-78
2023/03/06 14:33:58;;;;;;;12.45;5.20;;;11.40;51.20;;;;;;6128674;23;20010;-79
2023/03/06 14:36:40;;;;;;;10.27;5.47;;;11.50;50.80;;;;;;6127805;23;20069;-80
2023/03/06 14:39:23;;;;;;;10.65;4.90;;;11.40;50.70;;;;;;6126926;23;20325;-77
2023/03/06 14:41:50;;;;;;;9.45;4.43;;;11.50;51.00;;;;;;6122192;23;20061;-77
2023/03/06 14:44:22;;;;;;;6.45;3.28;;;11.60;50.50;;;;;;6123590;23;20006;-76
2023/03/06 14:46:51;;;;;;;8.40;3.97;;;11.60;50.10;;;;;;6126221;23;20008;-76
2023/03/06 14:49:19;;;;;;;8.10;4.63;;;11.60;50.00;;;;;;6126445;23;20006;-76
2023/03/06 14:51:50;;;;;;;5.40;3.55;;;11.70;49.20;;;;;;6126004;23;20033;-76
2023/03/06 14:54:28;;;;;;;7.18;3.10;;;11.70;49.40;;;;;;6125846;23;20010;-76
2023/03/06 14:57:04;;;;;;;7.93;3.90;;;11.60;49.60;;;;;;6126833;23;20061;-76
2023/03/06 14:59:36;;;;;;;6.38;4.32;;;11.60;50.20;;;;;;6121372;23;19998;-76
2023/03/06 15:02:06;;;;;;;9.70;4.40;;;11.60;49.80;;;;;;6100386;23;20033;-76
2023/03/06 15:04:40;;;;;;;7.53;3.67;;;11.50;50.30;;;;;;6126389;23;20013;-76
2023/03/06 15:07:16;;;;;;;6.65;4.13;;;11.30;50.00;;;;;;6119555;23;20002;-76
2023/03/06 15:09:46;;;;;;;7.45;3.55;;;11.30;50.40;;;;;;6123013;23;20654;-76
2023/03/06 15:12:21;;;;;;;6.55;3.78;;;11.20;50.90;;;;;;6125923;23;20013;-76
2023/03/06 15:15:08;;;;;;;8.75;4.15;;;11.10;50.30;;;;;;6126117;23;20010;-76
2023/03/06 15:17:42;;;;;;;7.45;3.92;;;11.00;50.80;;;;;;6121634;23;20002;-75
2023/03/06 15:20:40;;;;;;;7.10;3.85;;;11.00;51.10;;;;;;6099890;23;20013;-75
2023/03/06 15:23:33;;;;;;;6.70;4.15;;;10.90;51.00;;;;;;6126826;23;20085;-75
2023/03/06 15:26:03;;;;;;;7.43;3.47;;;10.80;50.60;;;;;;6126321;23;20006;-75
2023/03/06 15:28:36;;;;;;;5.73;3.20;;;10.90;51.70;;;;;;6123248;23;20513;-75
2023/03/06 15:31:18;;;;;;;6.15;3.95;;;10.90;51.90;;;;;;6122940;23;20019;-76
2023/03/06 15:34:10;;;;;;;9.27;5.47;;;10.90;51.70;;;;;;6098475;23;20041;-75
2023/03/06 15:36:40;;;;;;;8.80;4.53;;;10.90;52.40;;;;;;6125615;23;20006;-75
2023/03/06 15:39:33;;;;;;;13.07;5.53;;;11.00;52.40;;;;;;6126065;23;20057;-75
2023/03/06 15:42:19;;;;;;;10.75;4.80;;;11.10;52.30;;;;;;6095527;23;20026;-75
2023/03/06 15:44:54;;;;;;;10.95;5.57;;;11.10;52.50;;;;;;6125762;23;20021;-74
2023/03/06 15:47:21;;;;;;;9.88;4.93;;;11.20;52.60;;;;;;6119320;23;20006;-75
2023/03/06 15:49:50;;;;;;;13.52;5.45;;;11.20;53.10;;;;;;6125590;23;20441;-74
2023/03/06 15:52:16;;;;;;;12.60;5.10;;;11.20;53.10;;;;;;6125748;23;20006;-75
2023/03/06 15:54:42;;;;;;;9.20;4.68;;;11.00;53.60;;;;;;6125934;23;20006;-74
2023/03/06 15:57:20;;;;;;;12.75;5.88;;;10.90;53.50;;;;;;6120118;23;20009;-74
2023/03/06 15:59:46;;;;;;;8.13;4.65;;;11.00;54.20;;;;;;6125978;23;20030;-75
2023/03/06 16:02:17;;;;;;;10.30;4.95;;;11.00;54.00;;;;;;6122241;23;19998;-75
2023/03/06 16:04:43;;;;;;;10.88;5.68;;;11.00;53.50;;;;;;6126158;23;20010;-75
2023/03/06 16:07:09;;;;;;;15.95;5.97;;;10.90;53.40;;;;;;6100342;23;20009;-75
2023/03/06 16:09:35;;;;;;;8.10;4.40;;;11.00;53.70;;;;;;6127352;23;20430;-75
2023/03/06 16:12:01;;;;;;;11.38;5.30;;;10.90;53.30;;;;;;6123818;23;20005;-75
2023/03/06 16:14:27;;;;;;;11.88;5.07;;;10.90;53.60;;;;;;6124629;23;20354;-75
2023/03/06 16:16:55;;;;;;;8.60;4.30;;;10.80;53.10;;;;;;6125922;23;20457;-75
2023/03/06 16:19:23;;;;;;;7.50;4.70;;;10.70;53.30;;;;;;6127400;23;20026;-75
2023/03/06 16:21:48;;;;;;;14.10;4.93;;;10.70;53.90;;;;;;6125795;23;20002;-75
2023/03/06 16:24:15;;;;;;;8.10;4.93;;;10.70;54.10;;;;;;6126628;23;20449;-75
2023/03/06 16:26:49;;;;;;;11.40;6.10;;;10.70;54.60;;;;;;6125809;23;20452;-75
2023/03/06 16:29:23;;;;;;;10.30;5.45;;;10.70;54.80;;;;;;6124014;23;20050;-75
2023/03/06 16:31:49;;;;;;;7.45;4.50;;;10.70;54.70;;;;;;6126667;23;20420;-75
2023/03/06 16:34:15;;;;;;;14.00;5.38;;;10.70;54.50;;;;;;6127727;23;20030;-75
2023/03/06 16:36:41;;;;;;;7.95;4.43;;;10.60;54.60;;;;;;6128046;23;20446;-75
2023/03/06 16:39:13;;;;;;;10.05;5.10;;;10.50;54.80;;;;;;6128407;23;20006;-75
2023/03/06 16:41:39;;;;;;;11.77;5.68;;;10.60;54.60;;;;;;6128475;23;20382;-75
2023/03/06 16:44:06;;;;;;;9.82;4.80;;;10.60;54.60;;;;;;6128128;23;20081;-75
2023/03/06 16:46:35;;;;;;;8.98;4.80;;;10.60;54.90;;;;;;6128507;23;20002;-74
2023/03/06 16:49:01;;;;;;;9.75;4.43;;;10.50;55.10;;;;;;6128290;23;20029;-76
2023/03/06 16:51:26;;;;;;;8.60;4.82;;;10.50;55.50;;;;;;6127405;23;20013;-75
2023/03/06 16:53:53;;;;;;;9.68;4.60;;;10.50;54.80;;;;;;6128202;23;20010;-76
2023/03/06 16:56:19;;;;;;;10.45;5.40;;;10.50;54.50;;;;;;6126582;23;20002;-75
2023/03/06 16:58:46;;;;;;;12.25;5.57;;;10.30;54.90;;;;;;6128680;23;20057;-75
2023/03/06 17:01:17;;;;;;;12.25;6.40;;;10.30;54.80;;;;;;6125588;23;20338;-75
2023/03/06 17:03:43;;;;;;;11.27;5.32;;;10.30;54.90;;;;;;6128116;23;20018;-75
2023/03/06 17:06:18;;;;;;;9.63;5.15;;;10.30;55.10;;;;;;6128000;23;20041;-75
2023/03/06 17:08:45;;;;;;;13.05;6.47;;;10.30;55.10;;;;;;6129084;23;20002;-75
2023/03/06 17:11:12;;;;;;;10.02;5.78;;;10.20;55.50;;;;;;6128266;23;20002;-75
2023/03/06 17:13:38;;;;;;;11.15;5.50;;;10.20;55.30;;;;;;6128480;23;20037;-75
2023/03/06 17:16:04;;;;;;;11.20;5.15;;;10.20;55.70;;;;;;6128508;23;20009;-75
2023/03/06 17:18:30;;;;;;;10.73;5.32;;;10.20;55.80;;;;;;6129215;23;19998;-76
2023/03/06 17:20:57;;;;;;;14.00;5.78;;;10.20;56.00;;;;;;6129265;23;20073;-76
2023/03/06 17:23:28;;;;;;;10.80;6.60;;;10.10;56.20;;;;;;6128501;23;20433;-76
2023/03/06 17:26:03;;;;;;;9.32;6.05;;;10.10;56.70;;;;;;6103192;23;20064;-75
2023/03/06 17:28:29;;;;;;;12.35;5.85;;;10.00;56.70;;;;;;6127699;23;20008;-76
2023/03/06 17:30:55;;;;;;;7.78;5.15;;;10.10;56.90;;;;;;6128388;23;20037;-76
2023/03/06 17:33:21;;;;;;;9.35;5.80;;;10.00;57.20;;;;;;6127481;23;20081;-76
2023/03/06 17:35:46;;;;;;;13.32;6.88;;;10.00;57.20;;;;;;6127621;23;19998;-81
2023/03/06 17:38:12;;;;;;;10.90;4.88;;;9.90;57.30;;;;;;6128119;23;20026;-77
2023/03/06 17:40:37;;;;;;;11.82;5.35;;;9.80;58.00;;;;;;6128793;23;20118;-78
2023/03/06 17:43:03;;;;;;;6.93;4.97;;;9.80;58.20;;;;;;6125354;23;20521;-75
2023/03/06 17:45:29;;;;;;;10.57;6.03;;;9.80;58.00;;;;;;6125450;23;20417;-75
2023/03/06 17:47:54;;;;;;;12.95;7.68;;;9.80;58.20;;;;;;6122695;23;20041;-75
2023/03/06 17:50:20;;;;;;;11.27;6.90;;;9.70;58.10;;;;;;6123584;23;20481;-76
2023/03/06 17:52:46;;;;;;;16.05;7.13;;;9.80;58.10;;;;;;6125492;23;20315;-77
2023/03/06 17:55:12;;;;;;;11.68;6.15;;;9.70;58.50;;;;;;6098248;23;20040;-75
2023/03/06 17:57:37;;;;;;;10.68;5.75;;;9.60;58.70;;;;;;6126171;23;20039;-75
2023/03/06 18:00:04;;;;;;;9.65;5.22;;;9.70;58.80;;;;;;6126731;23;20002;-75
2023/03/06 18:02:30;;;;;;;14.77;6.97;;;9.70;58.70;;;;;;6119813;23;20521;-75
2023/03/06 18:04:57;;;;;;;9.98;6.53;;;9.60;58.80;;;;;;6118796;23;20041;-74
2023/03/06 18:07:23;;;;;;;10.65;6.30;;;9.70;58.90;;;;;;6126719;23;20006;-75
2023/03/06 18:09:48;;;;;;;11.05;6.85;;;9.60;59.00;;;;;;6127209;23;20053;-75
2023/03/06 18:12:14;;;;;;;10.88;6.38;;;9.60;59.00;;;;;;6127065;23;20047;-76
2023/03/06 18:14:40;;;;;;;13.90;7.55;;;9.70;58.90;;;;;;6126527;23;20010;-76
2023/03/06 18:17:05;;;;;;;12.00;7.20;;;9.60;59.00;;;;;;6127049;23;20365;-72
2023/03/06 18:19:31;;;;;;;17.55;6.90;;;9.60;59.10;;;;;;6127385;23;20002;-77
2023/03/06 18:21:56;;;;;;;14.38;7.18;;;9.50;59.10;;;;;;6129082;23;20027;-73
2023/03/06 18:24:27;;;;;;;12.95;6.22;;;9.40;59.50;;;;;;6128454;23;20484;-79
2023/03/06 18:26:53;;;;;;;13.13;6.82;;;9.40;59.60;;;;;;6103402;23;20013;-76
2023/03/06 18:29:20;;;;;;;17.30;8.57;;;9.40;59.70;;;;;;6131156;23;20002;-80
2023/03/06 18:31:48;;;;;;;12.18;7.63;;;9.40;59.90;;;;;;6128840;23;20453;-78
2023/03/06 18:34:16;;;;;;;15.07;8.27;;;9.40;59.70;;;;;;6131225;23;20013;-78
2023/03/06 18:36:42;;;;;;;10.10;6.50;;;9.30;59.90;;;;;;6104357;23;20002;-80
2023/03/06 18:39:10;;;;;;;11.02;6.00;;;9.30;60.10;;;;;;6131480;23;20010;-78
2023/03/06 18:41:41;;;;;;;10.00;5.68;;;9.30;60.00;;;;;;6135503;23;20006;-79